WEATHER/FLIGHT PLANNING

Hattiesburg Radar

 

 

 

 

Weather Links

Flight Planning Links

 

METAR

2019/03/25 00:53 KHBG 250053Z AUTO 18008KT 10SM CLR 20/13 A3013 RMK AO2 SLP201 T02000128

TAF

2019/03/24 18:22 TAF KHBG 241720Z 2418/2518 18006KT P6SM FEW040 SCT100 FM250100 18003KT P6SM BKN050 FM251100 00000KT 1SM BR OVC003 FM251330 24006KT P6SM OVC012